John Wayne Airport-Orange County Airport
KSNA : rendu visible

Aérodrome :











RETROUVEZ-NOUS SUR...

 
LOGIN :

S'inscrire | Disclaimer

   EN    FR    IT 

 









Légende :    VFR   VFR Marginal   IFR   IFR Intensif   IFR Très Intensif
Visi : 
Plafond : 
>= 8 km
>= 3000ft
5 à 8 km
1000 à 3000 ft
1500m à 5 km
500 à 1000 ft
800 à 1500m
200 à 500 ft
< 800m
< 200 ft
Symboles :   Orages  Brouillard  Fortes neiges  Fortes précipitations  Vent > 20 kt






- Altitude de l'aérodrome : 56 ft
- Code IATA : SNA


KSNA - John Wayne -Orange County

DERNIER METAR :
  • 201553Z 23007G15KT 10SM FEW028 FEW035 SCT045 16/07 A2961 RMK AO2 SLP025 T01560067

METARs EXPIRÉS :
  • 201453Z 23009G18KT 10SM FEW027 BKN035 BKN048 16/08 A2958 RMK AO2 SLP017 60003 T01560083 53014
  • 201353Z 21006KT 10SM SCT036 BKN046 BKN070 16/09 A2956 RMK AO2 RAB13E45 SLP010 P0003 T01560089

TAF KSNA
Valide du 20 à 12h jusqu'au 21 à 12h UTC


201132Z 2012/2112 20009KT P6SM -SHRA SCT025 BKN035
FM201600 23014G22KT P6SM -SHRA SCT020 BKN030
FM202000 22012G20KT P6SM SHRA BKN025 BKN040
FM202300 22008KT P6SM -SHRA SCT020 BKN030
FM210300 VRB05KT P6SM VCSH SCT020 BKN030



MET'MAP, la Météo Aéronautique d'un coup d'oeil ! - Copyright ORBIFLY Décembre 2007 - Disclaimer

ORBIFLY MET'MAP TEAM :

Programmation & Développement : Alexandra Zaïnal
Conception & Développement : Baudouin d'Aumeries
Co-Programmation & Développement : Marc-Olivier Méhu
Soutien technique & logistique : Manuel Goepfert

Contact : metmap@orbifly.com




SOURCES & CREDITS :

   NOAA       Earth
Advisory